createdAt,value
2023-01-05T00:01:08.357Z,11.84
2023-01-05T00:03:41.525Z,11.70
2023-01-05T00:06:17.461Z,11.76
2023-01-05T00:08:47.933Z,11.79
2023-01-05T00:11:38.014Z,11.81
2023-01-05T00:14:28.630Z,11.72
2023-01-05T00:17:22.927Z,11.75
2023-01-05T00:20:10.643Z,11.70
2023-01-05T00:22:46.268Z,11.67
2023-01-05T00:25:26.992Z,11.62
2023-01-05T00:28:00.897Z,11.69
2023-01-05T00:30:34.024Z,11.68
2023-01-05T00:33:20.011Z,11.86
2023-01-05T00:35:49.280Z,11.94
2023-01-05T00:38:21.092Z,11.96
2023-01-05T00:40:51.623Z,11.89
2023-01-05T00:43:22.547Z,11.94
2023-01-05T00:46:04.873Z,11.91
2023-01-05T00:48:49.357Z,12.01
2023-01-05T00:51:21.483Z,12.03
2023-01-05T00:53:59.900Z,12.02
2023-01-05T00:56:28.242Z,11.87
2023-01-05T00:59:00.278Z,11.99
2023-01-05T01:01:32.330Z,12.01
2023-01-05T01:04:13.564Z,11.96
2023-01-05T01:06:46.818Z,12.02
2023-01-05T01:09:16.725Z,12.08
2023-01-05T01:11:48.082Z,12.08
2023-01-05T01:14:17.161Z,12.13
2023-01-05T01:16:48.939Z,12.12
2023-01-05T01:19:39.306Z,12.02
2023-01-05T01:22:11.417Z,12.20
2023-01-05T01:24:44.184Z,12.18
2023-01-05T01:27:17.963Z,12.27
2023-01-05T01:29:56.404Z,12.16
2023-01-05T01:32:32.241Z,12.23
2023-01-05T01:35:05.080Z,12.06
2023-01-05T01:37:39.841Z,12.00
2023-01-05T01:40:16.192Z,12.00
2023-01-05T01:42:50.307Z,11.87
2023-01-05T01:45:24.268Z,11.81
2023-01-05T01:47:59.425Z,11.78
2023-01-05T01:50:35.315Z,11.88
2023-01-05T01:53:07.209Z,11.68
2023-01-05T01:55:37.336Z,11.72
2023-01-05T01:58:13.516Z,11.72
2023-01-05T02:00:54.791Z,11.76
2023-01-05T02:03:23.144Z,11.69
2023-01-05T02:06:07.209Z,11.67
2023-01-05T02:08:38.849Z,11.78
2023-01-05T02:11:26.244Z,11.84
2023-01-05T02:14:20.224Z,11.93
2023-01-05T02:17:07.663Z,11.84
2023-01-05T02:20:22.998Z,11.94
2023-01-05T02:23:39.790Z,11.85
2023-01-05T02:26:37.214Z,11.97
2023-01-05T02:29:31.763Z,11.97
2023-01-05T02:32:09.097Z,11.94
2023-01-05T02:34:44.346Z,12.00
2023-01-05T02:37:22.329Z,12.05
2023-01-05T02:40:04.527Z,12.22
2023-01-05T02:42:40.349Z,12.27
2023-01-05T02:45:11.054Z,12.36
2023-01-05T02:47:47.737Z,12.33
2023-01-05T02:50:22.088Z,12.30
2023-01-05T02:52:59.797Z,12.36
2023-01-05T02:55:32.631Z,12.40
2023-01-05T02:58:15.416Z,12.49
2023-01-05T03:00:51.284Z,12.41
2023-01-05T03:03:39.104Z,12.48
2023-01-05T03:06:15.425Z,12.46
2023-01-05T03:08:50.000Z,12.57
2023-01-05T03:11:39.434Z,12.59
2023-01-05T03:14:16.509Z,12.51
2023-01-05T03:16:47.155Z,12.52
2023-01-05T03:19:44.294Z,12.51
2023-01-05T03:22:37.407Z,12.58
2023-01-05T03:25:27.587Z,12.34
2023-01-05T03:28:18.763Z,12.46
2023-01-05T03:31:20.185Z,12.40
2023-01-05T03:34:12.688Z,12.44
2023-01-05T03:36:50.331Z,12.46
2023-01-05T03:39:29.001Z,12.42
2023-01-05T03:42:11.174Z,12.41
2023-01-05T03:44:41.537Z,12.55
2023-01-05T03:47:16.238Z,12.48
2023-01-05T03:49:48.936Z,12.53
2023-01-05T03:52:25.517Z,12.36
2023-01-05T03:54:56.773Z,12.41
2023-01-05T03:57:30.930Z,12.52
2023-01-05T04:00:01.287Z,12.47
2023-01-05T04:02:36.363Z,12.60
2023-01-05T04:05:07.013Z,12.54
2023-01-05T04:07:37.880Z,12.58
2023-01-05T04:10:11.281Z,12.52
2023-01-05T04:12:42.162Z,12.59
2023-01-05T04:15:15.439Z,12.61
2023-01-05T04:17:48.001Z,12.46
2023-01-05T04:20:18.408Z,12.46
2023-01-05T04:22:57.153Z,12.52
2023-01-05T04:25:26.407Z,12.62
2023-01-05T04:27:55.739Z,12.56
2023-01-05T04:30:30.413Z,12.64
2023-01-05T04:33:04.456Z,12.67
2023-01-05T04:35:33.288Z,12.75
2023-01-05T04:38:14.761Z,12.69
2023-01-05T04:40:43.267Z,12.70
2023-01-05T04:43:15.389Z,12.56
2023-01-05T04:45:48.122Z,12.56
2023-01-05T04:48:21.553Z,12.85
2023-01-05T04:50:58.825Z,12.63
2023-01-05T04:53:40.646Z,12.68
2023-01-05T04:56:24.295Z,12.65
2023-01-05T04:58:56.101Z,12.87
2023-01-05T05:01:27.537Z,12.78
2023-01-05T05:04:03.652Z,12.85
2023-01-05T05:06:43.951Z,12.75
2023-01-05T05:09:18.154Z,12.60
2023-01-05T05:11:50.633Z,12.75
2023-01-05T05:14:26.030Z,12.70
2023-01-05T05:16:59.236Z,12.78
2023-01-05T05:19:28.430Z,12.77
2023-01-05T05:22:00.199Z,12.78
2023-01-05T05:24:33.324Z,12.73
2023-01-05T05:27:05.884Z,12.75
2023-01-05T05:29:37.125Z,12.74
2023-01-05T05:32:10.722Z,12.67
2023-01-05T05:34:53.717Z,12.79
2023-01-05T05:37:23.115Z,12.80
2023-01-05T05:39:57.608Z,12.88
2023-01-05T05:42:31.656Z,12.66
2023-01-05T05:44:59.902Z,12.85
2023-01-05T05:47:29.324Z,12.91
2023-01-05T05:50:01.001Z,12.93
2023-01-05T05:52:32.782Z,12.86
2023-01-05T05:55:08.270Z,12.92
2023-01-05T05:57:39.050Z,12.98
2023-01-05T06:00:22.650Z,12.93
2023-01-05T06:02:51.395Z,12.95
2023-01-05T06:05:28.508Z,12.93
2023-01-05T06:07:57.628Z,12.98
2023-01-05T06:10:32.613Z,13.00
2023-01-05T06:13:01.796Z,13.06
2023-01-05T06:15:31.254Z,13.04
2023-01-05T06:18:02.880Z,12.99
2023-01-05T06:20:33.780Z,12.98
2023-01-05T06:23:06.699Z,12.95
2023-01-05T06:25:44.192Z,13.00
2023-01-05T06:28:20.265Z,12.93
2023-01-05T06:30:49.459Z,12.95
2023-01-05T06:33:22.187Z,12.98
2023-01-05T06:35:53.081Z,13.04
2023-01-05T06:38:21.995Z,13.03
2023-01-05T06:40:52.365Z,13.08
2023-01-05T06:43:21.811Z,12.99
2023-01-05T06:45:52.873Z,13.02
2023-01-05T06:48:22.253Z,13.00
2023-01-05T06:50:50.464Z,13.04
2023-01-05T06:53:22.355Z,13.07
2023-01-05T06:56:03.503Z,13.06
2023-01-05T06:58:37.461Z,13.10
2023-01-05T07:01:12.640Z,13.27
2023-01-05T07:03:41.528Z,13.11
2023-01-05T07:06:22.503Z,13.16
2023-01-05T07:08:55.118Z,13.09
2023-01-05T07:11:28.604Z,13.17
2023-01-05T07:13:59.895Z,13.21
2023-01-05T07:16:29.049Z,13.16
2023-01-05T07:18:59.996Z,13.23
2023-01-05T07:21:36.764Z,13.19
2023-01-05T07:24:18.066Z,13.23
2023-01-05T07:26:50.469Z,13.20
2023-01-05T07:29:20.501Z,13.29
2023-01-05T07:31:53.323Z,13.25
2023-01-05T07:34:25.035Z,13.23
2023-01-05T07:37:01.083Z,13.25
2023-01-05T07:39:31.212Z,13.32
2023-01-05T07:42:02.217Z,13.37
2023-01-05T07:44:33.061Z,13.34
2023-01-05T07:47:04.891Z,13.36
2023-01-05T07:49:35.081Z,13.39
2023-01-05T07:52:06.277Z,13.36
2023-01-05T07:54:37.081Z,13.37
2023-01-05T07:57:26.493Z,13.42
2023-01-05T07:59:55.738Z,13.49
2023-01-05T08:02:32.298Z,13.51
2023-01-05T08:05:09.486Z,13.51
2023-01-05T08:07:40.624Z,13.48
2023-01-05T08:10:28.837Z,13.52
2023-01-05T08:13:24.346Z,13.52
2023-01-05T08:15:52.949Z,13.45
2023-01-05T08:18:23.474Z,13.53
2023-01-05T08:21:01.025Z,13.52
2023-01-05T08:23:33.227Z,13.42
2023-01-05T08:26:08.223Z,13.49
2023-01-05T08:28:39.766Z,13.51
2023-01-05T08:31:13.317Z,13.47
2023-01-05T08:33:42.887Z,13.54
2023-01-05T08:36:20.348Z,13.55
2023-01-05T08:39:01.799Z,13.53
2023-01-05T08:41:42.278Z,13.49
2023-01-05T08:44:18.415Z,13.50
2023-01-05T08:46:53.320Z,13.46
2023-01-05T08:49:25.662Z,13.52
2023-01-05T08:51:55.853Z,13.55
2023-01-05T08:54:24.649Z,13.54
2023-01-05T08:56:56.397Z,13.58
2023-01-05T08:59:41.124Z,13.55
2023-01-05T09:02:15.457Z,13.55
2023-01-05T09:04:47.530Z,13.57
2023-01-05T09:07:20.215Z,13.58
2023-01-05T09:09:50.300Z,13.59
2023-01-05T09:12:26.767Z,13.55
2023-01-05T09:15:13.430Z,13.57
2023-01-05T09:17:42.042Z,13.51
2023-01-05T09:20:12.056Z,13.55
2023-01-05T09:22:48.000Z,13.64
2023-01-05T09:25:25.383Z,13.63
2023-01-05T09:27:53.653Z,13.69
2023-01-05T09:30:43.129Z,13.70
2023-01-05T09:33:15.210Z,13.73
2023-01-05T09:35:51.797Z,13.77
2023-01-05T09:38:26.734Z,13.75
2023-01-05T09:41:04.600Z,13.66
2023-01-05T09:43:38.439Z,13.74
2023-01-05T09:46:16.453Z,13.63
2023-01-05T09:48:55.608Z,13.59
2023-01-05T09:51:27.494Z,13.72
2023-01-05T09:54:06.309Z,13.65
2023-01-05T09:59:39.279Z,13.77
2023-01-05T10:02:28.133Z,13.71
2023-01-05T10:05:00.835Z,13.81
2023-01-05T10:07:42.223Z,13.75
2023-01-05T10:10:30.208Z,13.68
2023-01-05T10:13:07.378Z,13.54
2023-01-05T10:15:41.990Z,13.58
2023-01-05T10:18:20.167Z,13.71
2023-01-05T10:21:05.297Z,13.57
2023-01-05T10:23:54.069Z,13.61
2023-01-05T10:26:39.859Z,13.04
2023-01-05T10:29:23.269Z,12.55
2023-01-05T10:31:58.268Z,12.04
2023-01-05T10:34:46.085Z,11.93
2023-01-05T10:37:52.494Z,11.47
2023-01-05T10:40:47.119Z,11.50
2023-01-05T10:43:28.403Z,11.40
2023-01-05T10:49:08.077Z,11.41
2023-01-05T10:51:40.287Z,11.27
2023-01-05T10:54:28.291Z,11.35
2023-01-05T10:56:59.129Z,11.43
2023-01-05T10:59:30.800Z,11.49
2023-01-05T11:02:00.433Z,11.54
2023-01-05T11:04:36.973Z,11.47
2023-01-05T11:07:10.816Z,11.66
2023-01-05T11:09:49.419Z,11.43
2023-01-05T11:12:19.771Z,11.57
2023-01-05T11:14:57.804Z,11.45
2023-01-05T11:17:29.703Z,11.57
2023-01-05T11:19:59.795Z,11.46
2023-01-05T11:22:40.140Z,11.50
2023-01-05T11:25:28.577Z,11.29
2023-01-05T11:28:13.829Z,11.24
2023-01-05T11:30:59.163Z,11.36
2023-01-05T11:33:37.117Z,11.61
2023-01-05T11:36:07.359Z,11.55
2023-01-05T11:38:37.344Z,11.55
2023-01-05T11:41:12.641Z,11.53
2023-01-05T11:43:40.853Z,11.65
2023-01-05T11:46:10.102Z,11.67
2023-01-05T11:48:39.133Z,11.63
2023-01-05T11:51:11.106Z,11.48
2023-01-05T11:53:52.446Z,11.72
2023-01-05T11:56:28.872Z,11.66
2023-01-05T11:59:06.352Z,11.67
2023-01-05T12:01:58.300Z,11.69
2023-01-05T12:05:07.223Z,11.87
2023-01-05T12:07:45.496Z,11.99
2023-01-05T12:10:50.633Z,11.99
2023-01-05T12:14:03.893Z,12.05
2023-01-05T12:16:46.643Z,11.98
2023-01-05T12:19:55.590Z,11.97
2023-01-05T12:22:53.079Z,11.93
2023-01-05T12:25:51.269Z,11.92
2023-01-05T12:28:56.588Z,11.98
2023-01-05T12:35:02.735Z,12.14
2023-01-05T12:37:41.300Z,12.18
2023-01-05T12:40:33.787Z,12.15
2023-01-05T12:43:14.110Z,12.21
2023-01-05T12:46:36.516Z,12.21
2023-01-05T12:49:12.169Z,12.18
2023-01-05T12:51:45.108Z,12.15
2023-01-05T12:54:23.044Z,12.15
2023-01-05T12:56:55.725Z,12.24
2023-01-05T12:59:35.258Z,12.15
2023-01-05T13:02:23.376Z,12.15
2023-01-05T13:04:56.609Z,12.30
2023-01-05T13:07:30.925Z,12.31
2023-01-05T13:10:08.524Z,12.43
2023-01-05T13:12:40.786Z,12.46
2023-01-05T13:15:29.002Z,12.43
2023-01-05T13:18:06.027Z,12.46
2023-01-05T13:20:45.433Z,12.48
2023-01-05T13:23:18.272Z,12.43
2023-01-05T13:25:53.930Z,12.45
2023-01-05T13:28:35.074Z,12.67
2023-01-05T13:31:28.120Z,12.54
2023-01-05T13:34:16.544Z,12.55
2023-01-05T13:37:02.222Z,12.60
2023-01-05T13:39:44.159Z,12.57
2023-01-05T13:42:36.082Z,12.66
2023-01-05T13:45:27.857Z,12.48
2023-01-05T13:48:33.896Z,12.54
2023-01-05T13:51:43.693Z,12.58
2023-01-05T13:54:16.605Z,12.60
2023-01-05T13:56:47.312Z,12.62
2023-01-05T13:59:34.914Z,12.51
2023-01-05T14:02:28.201Z,12.49
2023-01-05T14:05:07.130Z,12.38
2023-01-05T14:07:40.731Z,12.54
2023-01-05T14:10:22.556Z,12.43
2023-01-05T14:12:54.523Z,12.39
2023-01-05T14:15:56.588Z,12.42
2023-01-05T14:18:52.930Z,12.31
2023-01-05T14:22:00.290Z,12.48
2023-01-05T14:24:37.345Z,12.33
2023-01-05T14:27:09.761Z,12.29
2023-01-05T14:30:19.240Z,12.30
2023-01-05T14:32:51.494Z,12.42
2023-01-05T14:35:23.610Z,12.44
2023-01-05T14:37:57.171Z,12.36
2023-01-05T14:40:45.365Z,12.26
2023-01-05T14:43:29.763Z,12.30
2023-01-05T14:46:06.336Z,12.42
2023-01-05T14:48:38.004Z,12.36
2023-01-05T14:51:46.406Z,12.23
2023-01-05T14:54:23.683Z,12.00
2023-01-05T14:57:31.037Z,11.88
2023-01-05T15:00:19.157Z,11.91
2023-01-05T15:03:00.278Z,11.87
2023-01-05T15:05:30.239Z,11.63
2023-01-05T15:08:09.420Z,11.66
2023-01-05T15:11:04.172Z,11.65
2023-01-05T15:14:17.733Z,11.74
2023-01-05T15:17:27.100Z,11.66
2023-01-05T15:20:43.413Z,11.68
2023-01-05T15:23:52.200Z,11.49
2023-01-05T15:26:46.611Z,11.51
2023-01-05T15:29:54.667Z,11.53
2023-01-05T15:32:31.263Z,11.44
2023-01-05T15:35:16.228Z,11.38
2023-01-05T15:37:50.306Z,11.61
2023-01-05T15:40:38.372Z,11.55
2023-01-05T15:43:12.642Z,11.57
2023-01-05T15:45:43.447Z,11.59
2023-01-05T15:48:21.474Z,11.63
2023-01-05T15:50:54.387Z,11.54
2023-01-05T15:53:35.455Z,11.64
2023-01-05T15:56:13.987Z,11.82
2023-01-05T15:58:48.255Z,11.62
2023-01-05T16:01:20.216Z,11.56
2023-01-05T16:03:52.487Z,11.49
2023-01-05T16:06:25.912Z,11.56
2023-01-05T16:09:01.537Z,11.54
2023-01-05T16:11:42.306Z,11.64
2023-01-05T16:14:29.063Z,11.48
2023-01-05T16:17:02.605Z,11.41
2023-01-05T16:19:38.441Z,11.45
2023-01-05T16:22:14.598Z,11.37
2023-01-05T16:24:51.360Z,11.39
2023-01-05T16:27:30.722Z,11.27
2023-01-05T16:30:17.659Z,11.29
2023-01-05T16:33:02.895Z,11.45
2023-01-05T16:35:43.369Z,11.39
2023-01-05T16:38:28.849Z,11.30
2023-01-05T16:41:08.866Z,11.39
2023-01-05T16:43:41.927Z,11.28
2023-01-05T16:46:29.881Z,11.42
2023-01-05T16:49:04.650Z,11.30
2023-01-05T16:51:44.817Z,11.19
2023-01-05T16:54:22.126Z,11.30
2023-01-05T16:57:01.518Z,11.26
2023-01-05T17:00:09.349Z,11.05
2023-01-05T17:02:53.110Z,11.18
2023-01-05T17:05:24.512Z,11.33
2023-01-05T17:08:07.293Z,11.27
2023-01-05T17:10:39.307Z,11.23
2023-01-05T17:13:12.462Z,11.28
2023-01-05T17:15:45.353Z,11.13
2023-01-05T17:18:17.481Z,11.21
2023-01-05T17:20:47.571Z,11.26
2023-01-05T17:23:30.818Z,11.15
2023-01-05T17:26:02.530Z,11.21
2023-01-05T17:28:34.184Z,11.14
2023-01-05T17:31:04.982Z,11.24
2023-01-05T17:33:41.908Z,11.17
2023-01-05T17:36:10.610Z,11.21
2023-01-05T17:38:51.561Z,11.28
2023-01-05T17:41:23.394Z,11.33
2023-01-05T17:43:55.446Z,11.34
2023-01-05T17:46:29.013Z,11.15
2023-01-05T17:49:11.329Z,11.26
2023-01-05T17:51:49.779Z,11.36
2023-01-05T17:54:33.413Z,11.27
2023-01-05T17:57:04.630Z,11.40
2023-01-05T17:59:37.237Z,11.15
2023-01-05T18:02:08.306Z,11.21
2023-01-05T18:04:41.933Z,11.09
2023-01-05T18:07:11.011Z,11.18
2023-01-05T18:09:50.681Z,11.27
2023-01-05T18:12:19.620Z,11.33
2023-01-05T18:14:52.724Z,11.13
2023-01-05T18:17:22.476Z,11.16
2023-01-05T18:19:52.522Z,11.23
2023-01-05T18:22:26.325Z,11.17
2023-01-05T18:24:57.187Z,11.17
2023-01-05T18:27:26.830Z,11.12
2023-01-05T18:30:00.106Z,11.09
2023-01-05T18:32:32.303Z,11.08
2023-01-05T18:35:09.890Z,11.16
2023-01-05T18:37:40.092Z,11.09
2023-01-05T18:40:26.884Z,11.16
2023-01-05T18:42:59.323Z,11.17
2023-01-05T18:45:39.105Z,11.09
2023-01-05T18:48:13.583Z,11.02
2023-01-05T18:50:53.146Z,10.87
2023-01-05T18:53:27.763Z,10.94
2023-01-05T18:55:59.801Z,10.94
2023-01-05T18:58:31.835Z,10.94
2023-01-05T19:01:01.345Z,11.08
2023-01-05T19:03:31.289Z,11.09
2023-01-05T19:06:00.796Z,10.97
2023-01-05T19:08:33.380Z,10.98
2023-01-05T19:11:14.440Z,11.00
2023-01-05T19:13:52.995Z,11.06
2023-01-05T19:16:31.208Z,11.11
2023-01-05T19:19:06.607Z,11.09
2023-01-05T19:21:37.268Z,10.94
2023-01-05T19:24:09.004Z,10.98
2023-01-05T19:26:42.231Z,11.19
2023-01-05T19:29:14.801Z,11.05
2023-01-05T19:31:47.717Z,11.11
2023-01-05T19:34:26.080Z,11.06
2023-01-05T19:36:55.522Z,11.08
2023-01-05T19:39:27.931Z,11.00
2023-01-05T19:42:08.188Z,10.88
2023-01-05T19:44:38.594Z,10.82
2023-01-05T19:47:10.420Z,10.87
2023-01-05T19:49:40.554Z,10.82
2023-01-05T19:52:09.850Z,10.76
2023-01-05T19:54:40.931Z,10.72
2023-01-05T19:57:15.958Z,10.76
2023-01-05T19:59:46.298Z,10.80
2023-01-05T20:02:17.101Z,10.72
2023-01-05T20:04:48.529Z,10.62
2023-01-05T20:07:22.497Z,10.68
2023-01-05T20:09:52.069Z,10.68
2023-01-05T20:12:31.614Z,10.70
2023-01-05T20:15:00.919Z,10.61
2023-01-05T20:17:31.227Z,10.67
2023-01-05T20:20:01.039Z,10.56
2023-01-05T20:22:35.779Z,10.45
2023-01-05T20:25:17.036Z,10.53
2023-01-05T20:28:08.100Z,10.50
2023-01-05T20:30:38.530Z,10.53
2023-01-05T20:33:09.880Z,10.50
2023-01-05T20:35:44.154Z,10.47
2023-01-05T20:38:22.256Z,10.38
2023-01-05T20:40:55.000Z,10.49
2023-01-05T20:43:29.847Z,10.38
2023-01-05T20:46:04.785Z,10.37
2023-01-05T20:48:36.297Z,10.27
2023-01-05T20:51:07.356Z,10.38
2023-01-05T20:53:40.068Z,10.51
2023-01-05T20:56:13.976Z,10.31
2023-01-05T20:58:50.249Z,10.46
2023-01-05T21:01:32.029Z,10.34
2023-01-05T21:04:06.087Z,10.25
2023-01-05T21:06:37.063Z,10.29
2023-01-05T21:09:08.572Z,10.26
2023-01-05T21:11:46.106Z,10.40
2023-01-05T21:14:25.278Z,10.40
2023-01-05T21:16:58.544Z,10.22
2023-01-05T21:19:32.146Z,10.25
2023-01-05T21:22:03.669Z,10.39
2023-01-05T21:24:33.818Z,10.27
2023-01-05T21:27:08.564Z,10.22
2023-01-05T21:29:42.103Z,10.33
2023-01-05T21:32:13.921Z,10.59
2023-01-05T21:34:42.660Z,10.37
2023-01-05T21:37:12.169Z,10.62
2023-01-05T21:39:40.631Z,10.55
2023-01-05T21:42:29.915Z,10.52
2023-01-05T21:45:16.241Z,10.46
2023-01-05T21:47:50.556Z,10.66
2023-01-05T21:50:40.734Z,10.60
2023-01-05T21:53:31.939Z,10.63
2023-01-05T21:56:19.929Z,10.73
2023-01-05T21:58:48.873Z,10.51
2023-01-05T22:01:36.383Z,10.75
2023-01-05T22:04:10.181Z,10.52
2023-01-05T22:06:44.371Z,10.72
2023-01-05T22:09:16.193Z,10.61
2023-01-05T22:11:46.840Z,10.82
2023-01-05T22:14:17.865Z,10.71
2023-01-05T22:16:48.556Z,10.61
2023-01-05T22:19:22.529Z,10.66
2023-01-05T22:21:58.973Z,10.78
2023-01-05T22:24:29.182Z,10.40
2023-01-05T22:27:12.795Z,10.46
2023-01-05T22:29:44.460Z,10.38
2023-01-05T22:32:21.096Z,10.50
2023-01-05T22:34:58.124Z,10.65
2023-01-05T22:37:26.695Z,10.73
2023-01-05T22:39:59.135Z,10.46
2023-01-05T22:42:30.126Z,10.50
2023-01-05T22:45:04.115Z,10.40
2023-01-05T22:47:36.575Z,10.54
2023-01-05T22:50:14.798Z,10.48
2023-01-05T22:52:43.155Z,10.48
2023-01-05T22:55:12.862Z,10.57
2023-01-05T22:57:42.657Z,10.56
2023-01-05T23:00:22.133Z,10.60
2023-01-05T23:03:01.517Z,10.47
2023-01-05T23:05:30.175Z,10.44
2023-01-05T23:07:59.645Z,10.36
2023-01-05T23:10:31.353Z,10.34
2023-01-05T23:13:04.111Z,10.54
2023-01-05T23:15:36.693Z,10.49
2023-01-05T23:18:17.072Z,10.34
2023-01-05T23:20:48.297Z,10.12
2023-01-05T23:23:18.891Z,10.29
2023-01-05T23:26:02.395Z,10.17
2023-01-05T23:28:32.450Z,10.17
2023-01-05T23:31:09.258Z,10.10
2023-01-05T23:33:44.655Z,10.09
2023-01-05T23:36:23.603Z,10.15
2023-01-05T23:38:52.743Z,10.24
2023-01-05T23:41:24.958Z,10.17
2023-01-05T23:43:58.961Z,10.20
2023-01-05T23:46:30.423Z,10.32
2023-01-05T23:49:00.832Z,10.15
2023-01-05T23:51:31.756Z,10.23
2023-01-05T23:54:01.416Z,10.13
2023-01-05T23:56:39.585Z,10.27
2023-01-05T23:59:10.173Z,10.33
